sensor_id;sensor_type;location;lat;lon;timestamp;P1;durP1;ratioP1;P2;durP2;ratioP2
16954;SDS011;8594;52.052;8.354;2023-04-01T00:01:47;7.03;;;3.17;;
16954;SDS011;8594;52.052;8.354;2023-04-01T00:04:13;5.50;;;2.53;;
16954;SDS011;8594;52.052;8.354;2023-04-01T00:06:40;8.10;;;3.07;;
16954;SDS011;8594;52.052;8.354;2023-04-01T00:09:07;6.83;;;2.90;;
16954;SDS011;8594;52.052;8.354;2023-04-01T00:11:34;3.23;;;2.37;;
16954;SDS011;8594;52.052;8.354;2023-04-01T00:14:02;5.73;;;2.53;;
16954;SDS011;8594;52.052;8.354;2023-04-01T00:16:29;10.40;;;2.37;;
16954;SDS011;8594;52.052;8.354;2023-04-01T00:18:56;5.47;;;2.40;;
16954;SDS011;8594;52.052;8.354;2023-04-01T00:21:23;4.33;;;2.00;;
16954;SDS011;8594;52.052;8.354;2023-04-01T00:23:50;3.83;;;2.00;;
16954;SDS011;8594;52.052;8.354;2023-04-01T00:26:17;4.93;;;1.93;;
16954;SDS011;8594;52.052;8.354;2023-04-01T00:28:46;5.87;;;2.10;;
16954;SDS011;8594;52.052;8.354;2023-04-01T00:31:14;6.10;;;1.87;;
16954;SDS011;8594;52.052;8.354;2023-04-01T00:33:42;2.77;;;2.10;;
16954;SDS011;8594;52.052;8.354;2023-04-01T00:36:09;4.70;;;1.80;;
16954;SDS011;8594;52.052;8.354;2023-04-01T00:38:38;5.40;;;1.70;;
16954;SDS011;8594;52.052;8.354;2023-04-01T00:41:05;7.23;;;1.70;;
16954;SDS011;8594;52.052;8.354;2023-04-01T00:43:32;3.33;;;1.70;;
16954;SDS011;8594;52.052;8.354;2023-04-01T00:46:00;3.57;;;1.77;;
16954;SDS011;8594;52.052;8.354;2023-04-01T00:48:30;3.73;;;1.80;;
16954;SDS011;8594;52.052;8.354;2023-04-01T00:51:01;4.17;;;1.90;;
16954;SDS011;8594;52.052;8.354;2023-04-01T00:53:34;9.40;;;1.90;;
16954;SDS011;8594;52.052;8.354;2023-04-01T00:56:07;3.70;;;1.70;;
16954;SDS011;8594;52.052;8.354;2023-04-01T00:58:41;5.80;;;1.70;;
16954;SDS011;8594;52.052;8.354;2023-04-01T01:01:12;4.27;;;1.80;;
16954;SDS011;8594;52.052;8.354;2023-04-01T01:03:41;5.03;;;1.90;;
16954;SDS011;8594;52.052;8.354;2023-04-01T01:06:08;8.33;;;2.37;;
16954;SDS011;8594;52.052;8.354;2023-04-01T01:09:07;4.70;;;2.33;;
16954;SDS011;8594;52.052;8.354;2023-04-01T01:11:54;4.93;;;1.97;;
16954;SDS011;8594;52.052;8.354;2023-04-01T01:14:35;3.50;;;1.50;;
16954;SDS011;8594;52.052;8.354;2023-04-01T01:17:19;2.47;;;1.43;;
16954;SDS011;8594;52.052;8.354;2023-04-01T01:23:12;3.87;;;1.60;;
16954;SDS011;8594;52.052;8.354;2023-04-01T01:26:09;3.73;;;1.53;;
16954;SDS011;8594;52.052;8.354;2023-04-01T01:29:05;2.63;;;1.70;;
16954;SDS011;8594;52.052;8.354;2023-04-01T01:31:45;6.27;;;2.40;;
16954;SDS011;8594;52.052;8.354;2023-04-01T01:34:25;3.03;;;1.60;;
16954;SDS011;8594;52.052;8.354;2023-04-01T01:37:05;4.57;;;1.70;;
16954;SDS011;8594;52.052;8.354;2023-04-01T01:39:38;6.10;;;2.00;;
16954;SDS011;8594;52.052;8.354;2023-04-01T01:42:09;7.53;;;1.63;;
16954;SDS011;8594;52.052;8.354;2023-04-01T01:44:41;2.80;;;1.40;;
16954;SDS011;8594;52.052;8.354;2023-04-01T01:47:12;3.43;;;1.70;;
16954;SDS011;8594;52.052;8.354;2023-04-01T01:49:42;4.63;;;1.50;;
16954;SDS011;8594;52.052;8.354;2023-04-01T01:52:13;5.27;;;1.43;;
16954;SDS011;8594;52.052;8.354;2023-04-01T01:54:46;2.83;;;1.40;;
16954;SDS011;8594;52.052;8.354;2023-04-01T01:57:14;3.17;;;1.50;;
16954;SDS011;8594;52.052;8.354;2023-04-01T01:59:43;4.50;;;1.57;;
16954;SDS011;8594;52.052;8.354;2023-04-01T02:02:14;5.03;;;1.53;;
16954;SDS011;8594;52.052;8.354;2023-04-01T02:04:43;3.17;;;1.37;;
16954;SDS011;8594;52.052;8.354;2023-04-01T02:07:14;2.70;;;1.60;;
16954;SDS011;8594;52.052;8.354;2023-04-01T02:09:47;6.47;;;1.40;;
16954;SDS011;8594;52.052;8.354;2023-04-01T02:12:15;5.50;;;1.17;;
16954;SDS011;8594;52.052;8.354;2023-04-01T02:14:45;4.97;;;1.60;;
16954;SDS011;8594;52.052;8.354;2023-04-01T02:17:19;3.27;;;1.77;;
16954;SDS011;8594;52.052;8.354;2023-04-01T02:19:49;2.37;;;1.50;;
16954;SDS011;8594;52.052;8.354;2023-04-01T02:22:23;6.07;;;1.40;;
16954;SDS011;8594;52.052;8.354;2023-04-01T02:24:54;5.50;;;1.30;;
16954;SDS011;8594;52.052;8.354;2023-04-01T02:27:28;4.90;;;1.20;;
16954;SDS011;8594;52.052;8.354;2023-04-01T02:29:57;4.73;;;1.57;;
16954;SDS011;8594;52.052;8.354;2023-04-01T02:32:24;1.53;;;1.30;;
16954;SDS011;8594;52.052;8.354;2023-04-01T02:34:53;3.93;;;1.40;;
16954;SDS011;8594;52.052;8.354;2023-04-01T02:37:23;5.33;;;1.60;;
16954;SDS011;8594;52.052;8.354;2023-04-01T02:39:49;2.97;;;1.30;;
16954;SDS011;8594;52.052;8.354;2023-04-01T02:42:16;2.93;;;1.57;;
16954;SDS011;8594;52.052;8.354;2023-04-01T02:44:43;2.53;;;1.23;;
16954;SDS011;8594;52.052;8.354;2023-04-01T02:47:10;1.30;;;1.20;;
16954;SDS011;8594;52.052;8.354;2023-04-01T02:49:37;2.37;;;1.20;;
16954;SDS011;8594;52.052;8.354;2023-04-01T02:52:04;2.23;;;1.20;;
16954;SDS011;8594;52.052;8.354;2023-04-01T02:54:32;3.90;;;1.10;;
16954;SDS011;8594;52.052;8.354;2023-04-01T02:56:59;6.13;;;1.33;;
16954;SDS011;8594;52.052;8.354;2023-04-01T02:59:26;2.30;;;1.10;;
16954;SDS011;8594;52.052;8.354;2023-04-01T03:01:53;2.47;;;1.20;;
16954;SDS011;8594;52.052;8.354;2023-04-01T03:04:20;1.77;;;1.00;;
16954;SDS011;8594;52.052;8.354;2023-04-01T03:06:46;1.50;;;1.07;;
16954;SDS011;8594;52.052;8.354;2023-04-01T03:09:13;1.23;;;1.13;;
16954;SDS011;8594;52.052;8.354;2023-04-01T03:11:42;3.13;;;1.10;;
16954;SDS011;8594;52.052;8.354;2023-04-01T03:14:09;2.27;;;1.20;;
16954;SDS011;8594;52.052;8.354;2023-04-01T03:16:36;4.57;;;1.20;;
16954;SDS011;8594;52.052;8.354;2023-04-01T03:19:02;3.50;;;0.90;;
16954;SDS011;8594;52.052;8.354;2023-04-01T03:21:29;2.23;;;1.20;;
16954;SDS011;8594;52.052;8.354;2023-04-01T03:23:56;1.73;;;1.10;;
16954;SDS011;8594;52.052;8.354;2023-04-01T03:26:23;3.67;;;1.13;;
16954;SDS011;8594;52.052;8.354;2023-04-01T03:28:53;1.97;;;1.20;;
16954;SDS011;8594;52.052;8.354;2023-04-01T03:31:20;2.70;;;1.10;;
16954;SDS011;8594;52.052;8.354;2023-04-01T03:33:47;4.13;;;1.10;;
16954;SDS011;8594;52.052;8.354;2023-04-01T03:36:14;3.07;;;1.17;;
16954;SDS011;8594;52.052;8.354;2023-04-01T03:38:41;3.43;;;0.90;;
16954;SDS011;8594;52.052;8.354;2023-04-01T03:41:12;3.27;;;1.30;;
16954;SDS011;8594;52.052;8.354;2023-04-01T03:43:41;2.10;;;1.10;;
16954;SDS011;8594;52.052;8.354;2023-04-01T03:46:10;2.67;;;1.13;;
16954;SDS011;8594;52.052;8.354;2023-04-01T03:48:37;2.13;;;1.23;;
16954;SDS011;8594;52.052;8.354;2023-04-01T03:51:06;2.77;;;1.10;;
16954;SDS011;8594;52.052;8.354;2023-04-01T03:53:34;2.93;;;1.10;;
16954;SDS011;8594;52.052;8.354;2023-04-01T03:56:03;3.57;;;1.43;;
16954;SDS011;8594;52.052;8.354;2023-04-01T03:58:30;2.37;;;1.20;;
16954;SDS011;8594;52.052;8.354;2023-04-01T04:00:57;3.17;;;1.43;;
16954;SDS011;8594;52.052;8.354;2023-04-01T04:03:25;2.57;;;1.20;;
16954;SDS011;8594;52.052;8.354;2023-04-01T04:05:53;1.20;;;1.00;;
16954;SDS011;8594;52.052;8.354;2023-04-01T04:08:20;5.33;;;1.27;;
16954;SDS011;8594;52.052;8.354;2023-04-01T04:10:47;2.03;;;1.27;;
16954;SDS011;8594;52.052;8.354;2023-04-01T04:13:20;2.43;;;1.20;;
16954;SDS011;8594;52.052;8.354;2023-04-01T04:15:47;1.90;;;1.23;;
16954;SDS011;8594;52.052;8.354;2023-04-01T04:18:14;2.37;;;1.37;;
16954;SDS011;8594;52.052;8.354;2023-04-01T04:20:44;2.17;;;1.20;;
16954;SDS011;8594;52.052;8.354;2023-04-01T04:23:13;3.07;;;1.10;;
16954;SDS011;8594;52.052;8.354;2023-04-01T04:25:40;4.00;;;2.10;;
16954;SDS011;8594;52.052;8.354;2023-04-01T04:28:07;3.10;;;1.13;;
16954;SDS011;8594;52.052;8.354;2023-04-01T04:30:33;2.47;;;1.17;;
16954;SDS011;8594;52.052;8.354;2023-04-01T04:33:00;1.50;;;1.10;;
16954;SDS011;8594;52.052;8.354;2023-04-01T04:35:27;1.20;;;0.97;;
16954;SDS011;8594;52.052;8.354;2023-04-01T04:37:56;0.93;;;0.90;;
16954;SDS011;8594;52.052;8.354;2023-04-01T04:40:23;1.17;;;1.07;;
16954;SDS011;8594;52.052;8.354;2023-04-01T04:42:49;2.87;;;1.20;;
16954;SDS011;8594;52.052;8.354;2023-04-01T04:45:16;5.20;;;1.00;;
16954;SDS011;8594;52.052;8.354;2023-04-01T04:47:43;2.70;;;1.33;;
16954;SDS011;8594;52.052;8.354;2023-04-01T04:50:10;1.20;;;1.10;;
16954;SDS011;8594;52.052;8.354;2023-04-01T04:52:38;1.50;;;1.00;;
16954;SDS011;8594;52.052;8.354;2023-04-01T04:55:06;2.17;;;1.10;;
16954;SDS011;8594;52.052;8.354;2023-04-01T04:57:34;1.50;;;1.03;;
16954;SDS011;8594;52.052;8.354;2023-04-01T05:00:01;2.33;;;1.00;;
16954;SDS011;8594;52.052;8.354;2023-04-01T05:02:28;1.53;;;1.07;;
16954;SDS011;8594;52.052;8.354;2023-04-01T05:04:55;3.53;;;1.10;;
16954;SDS011;8594;52.052;8.354;2023-04-01T05:07:22;1.10;;;1.03;;
16954;SDS011;8594;52.052;8.354;2023-04-01T05:09:49;2.80;;;1.13;;
16954;SDS011;8594;52.052;8.354;2023-04-01T05:12:17;2.80;;;1.00;;
16954;SDS011;8594;52.052;8.354;2023-04-01T05:14:44;1.10;;;0.90;;
16954;SDS011;8594;52.052;8.354;2023-04-01T05:17:11;2.70;;;1.20;;
16954;SDS011;8594;52.052;8.354;2023-04-01T05:19:39;4.10;;;1.20;;
16954;SDS011;8594;52.052;8.354;2023-04-01T05:22:06;3.47;;;1.27;;
16954;SDS011;8594;52.052;8.354;2023-04-01T05:24:33;2.07;;;1.40;;
16954;SDS011;8594;52.052;8.354;2023-04-01T05:27:00;2.00;;;1.17;;
16954;SDS011;8594;52.052;8.354;2023-04-01T05:29:28;3.20;;;1.30;;
16954;SDS011;8594;52.052;8.354;2023-04-01T05:31:55;3.70;;;1.47;;
16954;SDS011;8594;52.052;8.354;2023-04-01T05:34:22;1.30;;;1.20;;
16954;SDS011;8594;52.052;8.354;2023-04-01T05:36:48;2.77;;;1.30;;
16954;SDS011;8594;52.052;8.354;2023-04-01T05:39:15;1.53;;;1.30;;
16954;SDS011;8594;52.052;8.354;2023-04-01T05:41:42;2.10;;;1.40;;
16954;SDS011;8594;52.052;8.354;2023-04-01T05:44:10;1.70;;;1.20;;
16954;SDS011;8594;52.052;8.354;2023-04-01T05:46:39;1.60;;;1.37;;
16954;SDS011;8594;52.052;8.354;2023-04-01T05:49:06;5.03;;;1.47;;
16954;SDS011;8594;52.052;8.354;2023-04-01T05:51:34;2.13;;;1.20;;
16954;SDS011;8594;52.052;8.354;2023-04-01T05:54:00;3.37;;;1.30;;
16954;SDS011;8594;52.052;8.354;2023-04-01T05:56:27;4.00;;;1.40;;
16954;SDS011;8594;52.052;8.354;2023-04-01T05:58:54;4.50;;;1.87;;
16954;SDS011;8594;52.052;8.354;2023-04-01T06:01:21;2.13;;;1.30;;
16954;SDS011;8594;52.052;8.354;2023-04-01T06:03:49;2.63;;;1.37;;
16954;SDS011;8594;52.052;8.354;2023-04-01T06:06:19;3.00;;;1.30;;
16954;SDS011;8594;52.052;8.354;2023-04-01T06:08:50;2.67;;;1.20;;
16954;SDS011;8594;52.052;8.354;2023-04-01T06:11:26;2.80;;;1.40;;
16954;SDS011;8594;52.052;8.354;2023-04-01T06:14:08;1.53;;;1.40;;
16954;SDS011;8594;52.052;8.354;2023-04-01T06:16:50;1.30;;;1.20;;
16954;SDS011;8594;52.052;8.354;2023-04-01T06:19:41;1.20;;;1.10;;
16954;SDS011;8594;52.052;8.354;2023-04-01T06:22:22;2.13;;;1.20;;
16954;SDS011;8594;52.052;8.354;2023-04-01T06:25:18;1.50;;;1.30;;
16954;SDS011;8594;52.052;8.354;2023-04-01T06:28:14;1.73;;;1.10;;
16954;SDS011;8594;52.052;8.354;2023-04-01T06:31:10;1.20;;;1.10;;
16954;SDS011;8594;52.052;8.354;2023-04-01T06:33:52;2.30;;;1.10;;
16954;SDS011;8594;52.052;8.354;2023-04-01T06:36:55;1.33;;;1.00;;
16954;SDS011;8594;52.052;8.354;2023-04-01T06:39:53;3.23;;;1.03;;
16954;SDS011;8594;52.052;8.354;2023-04-01T06:42:40;3.10;;;1.30;;
16954;SDS011;8594;52.052;8.354;2023-04-01T06:45:28;2.50;;;0.83;;
16954;SDS011;8594;52.052;8.354;2023-04-01T06:48:10;1.13;;;1.03;;
16954;SDS011;8594;52.052;8.354;2023-04-01T06:51:01;1.37;;;1.27;;
16954;SDS011;8594;52.052;8.354;2023-04-01T06:53:46;1.50;;;1.40;;
16954;SDS011;8594;52.052;8.354;2023-04-01T06:56:21;3.60;;;1.20;;
16954;SDS011;8594;52.052;8.354;2023-04-01T06:58:52;1.40;;;1.17;;
16954;SDS011;8594;52.052;8.354;2023-04-01T07:01:28;2.87;;;1.57;;
16954;SDS011;8594;52.052;8.354;2023-04-01T07:04:01;2.83;;;1.70;;
16954;SDS011;8594;52.052;8.354;2023-04-01T07:06:36;2.97;;;1.80;;
16954;SDS011;8594;52.052;8.354;2023-04-01T07:09:13;3.37;;;1.97;;
16954;SDS011;8594;52.052;8.354;2023-04-01T07:11:46;4.33;;;1.80;;
16954;SDS011;8594;52.052;8.354;2023-04-01T07:14:14;1.67;;;1.43;;
16954;SDS011;8594;52.052;8.354;2023-04-01T07:16:51;3.17;;;1.60;;
16954;SDS011;8594;52.052;8.354;2023-04-01T07:19:25;6.43;;;4.33;;
16954;SDS011;8594;52.052;8.354;2023-04-01T07:22:00;3.10;;;2.30;;
16954;SDS011;8594;52.052;8.354;2023-04-01T07:24:33;3.37;;;2.87;;
16954;SDS011;8594;52.052;8.354;2023-04-01T07:27:05;4.30;;;2.93;;
16954;SDS011;8594;52.052;8.354;2023-04-01T07:29:36;4.13;;;2.33;;
16954;SDS011;8594;52.052;8.354;2023-04-01T07:35:13;2.97;;;1.77;;
16954;SDS011;8594;52.052;8.354;2023-04-01T07:37:53;4.47;;;2.70;;
16954;SDS011;8594;52.052;8.354;2023-04-01T07:40:39;3.60;;;2.70;;
16954;SDS011;8594;52.052;8.354;2023-04-01T07:43:21;5.20;;;2.70;;
16954;SDS011;8594;52.052;8.354;2023-04-01T07:46:06;6.97;;;3.17;;
16954;SDS011;8594;52.052;8.354;2023-04-01T07:48:50;7.73;;;3.80;;
16954;SDS011;8594;52.052;8.354;2023-04-01T07:51:24;13.10;;;6.43;;
16954;SDS011;8594;52.052;8.354;2023-04-01T07:54:03;6.30;;;3.30;;
16954;SDS011;8594;52.052;8.354;2023-04-01T07:56:41;8.87;;;3.77;;
16954;SDS011;8594;52.052;8.354;2023-04-01T07:59:17;6.33;;;4.30;;
16954;SDS011;8594;52.052;8.354;2023-04-01T08:01:57;6.57;;;3.13;;
16954;SDS011;8594;52.052;8.354;2023-04-01T08:04:39;11.57;;;6.83;;
16954;SDS011;8594;52.052;8.354;2023-04-01T08:07:22;6.23;;;3.00;;
16954;SDS011;8594;52.052;8.354;2023-04-01T08:09:55;5.80;;;3.00;;
16954;SDS011;8594;52.052;8.354;2023-04-01T08:12:35;4.67;;;2.80;;
16954;SDS011;8594;52.052;8.354;2023-04-01T08:15:15;5.53;;;3.47;;
16954;SDS011;8594;52.052;8.354;2023-04-01T08:18:02;6.67;;;3.17;;
16954;SDS011;8594;52.052;8.354;2023-04-01T08:20:40;6.60;;;2.30;;
16954;SDS011;8594;52.052;8.354;2023-04-01T08:23:14;5.27;;;2.97;;
16954;SDS011;8594;52.052;8.354;2023-04-01T08:25:47;6.63;;;3.43;;
16954;SDS011;8594;52.052;8.354;2023-04-01T08:28:21;5.70;;;2.83;;
16954;SDS011;8594;52.052;8.354;2023-04-01T08:30:56;3.50;;;2.73;;
16954;SDS011;8594;52.052;8.354;2023-04-01T08:33:30;5.97;;;3.17;;
16954;SDS011;8594;52.052;8.354;2023-04-01T08:35:59;5.87;;;3.10;;
16954;SDS011;8594;52.052;8.354;2023-04-01T08:38:34;3.40;;;2.90;;
16954;SDS011;8594;52.052;8.354;2023-04-01T08:44:20;3.50;;;2.90;;
16954;SDS011;8594;52.052;8.354;2023-04-01T08:47:30;3.13;;;2.47;;
16954;SDS011;8594;52.052;8.354;2023-04-01T08:50:28;5.47;;;2.63;;
16954;SDS011;8594;52.052;8.354;2023-04-01T08:53:18;2.97;;;2.50;;
16954;SDS011;8594;52.052;8.354;2023-04-01T08:56:01;3.80;;;2.17;;
16954;SDS011;8594;52.052;8.354;2023-04-01T08:58:51;6.77;;;3.23;;
16954;SDS011;8594;52.052;8.354;2023-04-01T09:01:54;4.70;;;2.40;;
16954;SDS011;8594;52.052;8.354;2023-04-01T09:04:52;3.33;;;2.27;;
16954;SDS011;8594;52.052;8.354;2023-04-01T09:07:51;3.90;;;2.60;;
16954;SDS011;8594;52.052;8.354;2023-04-01T09:10:45;3.67;;;2.57;;
16954;SDS011;8594;52.052;8.354;2023-04-01T09:13:42;3.60;;;2.60;;
16954;SDS011;8594;52.052;8.354;2023-04-01T09:16:44;4.50;;;2.43;;
16954;SDS011;8594;52.052;8.354;2023-04-01T09:19:58;2.60;;;2.20;;
16954;SDS011;8594;52.052;8.354;2023-04-01T09:22:50;5.70;;;2.87;;
16954;SDS011;8594;52.052;8.354;2023-04-01T09:25:53;4.23;;;2.83;;
16954;SDS011;8594;52.052;8.354;2023-04-01T09:28:38;3.93;;;1.97;;
16954;SDS011;8594;52.052;8.354;2023-04-01T09:31:19;2.60;;;2.40;;
16954;SDS011;8594;52.052;8.354;2023-04-01T09:34:26;2.60;;;2.20;;
16954;SDS011;8594;52.052;8.354;2023-04-01T09:37:18;2.43;;;2.23;;
16954;SDS011;8594;52.052;8.354;2023-04-01T09:39:52;2.10;;;1.90;;
16954;SDS011;8594;52.052;8.354;2023-04-01T09:42:43;2.27;;;1.90;;
16954;SDS011;8594;52.052;8.354;2023-04-01T09:45:37;3.03;;;2.03;;
16954;SDS011;8594;52.052;8.354;2023-04-01T09:48:21;1.80;;;1.70;;
16954;SDS011;8594;52.052;8.354;2023-04-01T09:51:18;3.50;;;2.13;;
16954;SDS011;8594;52.052;8.354;2023-04-01T09:54:01;5.17;;;3.67;;
16954;SDS011;8594;52.052;8.354;2023-04-01T09:56:55;3.60;;;2.97;;
16954;SDS011;8594;52.052;8.354;2023-04-01T10:00:10;3.13;;;2.60;;
16954;SDS011;8594;52.052;8.354;2023-04-01T10:06:30;4.57;;;2.33;;
16954;SDS011;8594;52.052;8.354;2023-04-01T10:09:55;4.47;;;2.53;;
16954;SDS011;8594;52.052;8.354;2023-04-01T10:16:37;2.37;;;2.03;;
16954;SDS011;8594;52.052;8.354;2023-04-01T10:19:54;2.70;;;2.13;;
16954;SDS011;8594;52.052;8.354;2023-04-01T10:22:53;2.30;;;2.00;;
16954;SDS011;8594;52.052;8.354;2023-04-01T10:26:10;4.07;;;1.87;;
16954;SDS011;8594;52.052;8.354;2023-04-01T10:29:16;2.10;;;1.70;;
16954;SDS011;8594;52.052;8.354;2023-04-01T10:32:31;2.57;;;2.33;;
16954;SDS011;8594;52.052;8.354;2023-04-01T10:49:38;2.70;;;2.30;;
16954;SDS011;8594;52.052;8.354;2023-04-01T10:55:47;1.80;;;1.63;;
16954;SDS011;8594;52.052;8.354;2023-04-01T11:08:57;1.70;;;1.40;;
16954;SDS011;8594;52.052;8.354;2023-04-01T11:15:33;2.03;;;1.80;;
16954;SDS011;8594;52.052;8.354;2023-04-01T11:18:49;1.83;;;1.70;;
16954;SDS011;8594;52.052;8.354;2023-04-01T11:25:05;1.80;;;1.70;;
16954;SDS011;8594;52.052;8.354;2023-04-01T11:31:15;2.50;;;2.07;;
16954;SDS011;8594;52.052;8.354;2023-04-01T11:34:02;2.20;;;2.00;;
16954;SDS011;8594;52.052;8.354;2023-04-01T11:36:50;2.73;;;2.33;;
16954;SDS011;8594;52.052;8.354;2023-04-01T11:39:31;3.73;;;2.30;;
16954;SDS011;8594;52.052;8.354;2023-04-01T11:42:14;2.27;;;2.00;;
16954;SDS011;8594;52.052;8.354;2023-04-01T11:44:57;4.67;;;2.67;;
16954;SDS011;8594;52.052;8.354;2023-04-01T11:47:47;4.13;;;2.50;;
16954;SDS011;8594;52.052;8.354;2023-04-01T11:50:35;2.47;;;2.00;;
16954;SDS011;8594;52.052;8.354;2023-04-01T11:53:23;2.63;;;2.37;;
16954;SDS011;8594;52.052;8.354;2023-04-01T11:56:10;2.60;;;2.40;;
16954;SDS011;8594;52.052;8.354;2023-04-01T11:58:58;2.63;;;2.43;;
16954;SDS011;8594;52.052;8.354;2023-04-01T12:01:57;2.93;;;2.20;;
16954;SDS011;8594;52.052;8.354;2023-04-01T12:04:46;3.03;;;2.03;;
16954;SDS011;8594;52.052;8.354;2023-04-01T12:07:45;3.07;;;2.03;;
16954;SDS011;8594;52.052;8.354;2023-04-01T12:10:29;2.00;;;1.80;;
16954;SDS011;8594;52.052;8.354;2023-04-01T12:13:09;1.50;;;1.40;;
16954;SDS011;8594;52.052;8.354;2023-04-01T12:15:54;2.10;;;1.87;;
16954;SDS011;8594;52.052;8.354;2023-04-01T12:18:42;2.00;;;1.80;;
16954;SDS011;8594;52.052;8.354;2023-04-01T12:21:17;2.13;;;1.93;;
16954;SDS011;8594;52.052;8.354;2023-04-01T12:23:56;2.90;;;1.90;;
16954;SDS011;8594;52.052;8.354;2023-04-01T12:26:59;3.00;;;2.37;;
16954;SDS011;8594;52.052;8.354;2023-04-01T12:29:57;4.97;;;3.67;;
16954;SDS011;8594;52.052;8.354;2023-04-01T12:32:53;5.70;;;3.77;;
16954;SDS011;8594;52.052;8.354;2023-04-01T12:35:45;5.40;;;3.30;;
16954;SDS011;8594;52.052;8.354;2023-04-01T12:38:29;4.17;;;3.17;;
16954;SDS011;8594;52.052;8.354;2023-04-01T12:41:12;5.87;;;3.40;;
16954;SDS011;8594;52.052;8.354;2023-04-01T12:44:03;2.70;;;2.30;;
16954;SDS011;8594;52.052;8.354;2023-04-01T12:46:56;3.33;;;2.53;;
16954;SDS011;8594;52.052;8.354;2023-04-01T12:50:08;4.00;;;2.40;;
16954;SDS011;8594;52.052;8.354;2023-04-01T12:53:05;2.40;;;2.00;;
16954;SDS011;8594;52.052;8.354;2023-04-01T12:55:55;1.90;;;1.80;;
16954;SDS011;8594;52.052;8.354;2023-04-01T12:58:31;3.73;;;2.20;;
16954;SDS011;8594;52.052;8.354;2023-04-01T13:01:44;3.90;;;2.57;;
16954;SDS011;8594;52.052;8.354;2023-04-01T13:07:53;5.57;;;3.30;;
16954;SDS011;8594;52.052;8.354;2023-04-01T13:10:32;8.50;;;4.10;;
16954;SDS011;8594;52.052;8.354;2023-04-01T13:13:31;7.70;;;3.90;;
16954;SDS011;8594;52.052;8.354;2023-04-01T13:16:14;3.00;;;2.33;;
16954;SDS011;8594;52.052;8.354;2023-04-01T13:18:52;4.87;;;2.80;;
16954;SDS011;8594;52.052;8.354;2023-04-01T13:21:28;2.97;;;2.33;;
16954;SDS011;8594;52.052;8.354;2023-04-01T13:24:10;2.47;;;2.07;;
16954;SDS011;8594;52.052;8.354;2023-04-01T13:26:55;2.50;;;2.00;;
16954;SDS011;8594;52.052;8.354;2023-04-01T13:29:32;2.33;;;2.13;;
16954;SDS011;8594;52.052;8.354;2023-04-01T13:32:10;2.53;;;1.97;;
16954;SDS011;8594;52.052;8.354;2023-04-01T13:34:52;3.93;;;2.10;;
16954;SDS011;8594;52.052;8.354;2023-04-01T13:37:41;2.27;;;1.80;;
16954;SDS011;8594;52.052;8.354;2023-04-01T13:40:43;2.20;;;1.80;;
16954;SDS011;8594;52.052;8.354;2023-04-01T13:43:26;2.80;;;1.87;;
16954;SDS011;8594;52.052;8.354;2023-04-01T13:46:08;2.10;;;1.90;;
16954;SDS011;8594;52.052;8.354;2023-04-01T13:48:58;3.00;;;2.20;;
16954;SDS011;8594;52.052;8.354;2023-04-01T13:55:30;2.57;;;2.13;;
16954;SDS011;8594;52.052;8.354;2023-04-01T14:01:31;2.67;;;2.33;;
16954;SDS011;8594;52.052;8.354;2023-04-01T14:07:16;3.83;;;3.03;;
16954;SDS011;8594;52.052;8.354;2023-04-01T14:10:07;3.77;;;3.30;;
16954;SDS011;8594;52.052;8.354;2023-04-01T14:12:47;3.70;;;3.20;;
16954;SDS011;8594;52.052;8.354;2023-04-01T14:15:33;4.07;;;3.20;;
16954;SDS011;8594;52.052;8.354;2023-04-01T14:18:17;4.30;;;3.63;;
16954;SDS011;8594;52.052;8.354;2023-04-01T14:21:04;5.40;;;3.67;;
16954;SDS011;8594;52.052;8.354;2023-04-01T14:30:14;5.47;;;3.67;;
16954;SDS011;8594;52.052;8.354;2023-04-01T14:33:16;5.00;;;3.50;;
16954;SDS011;8594;52.052;8.354;2023-04-01T14:36:07;5.37;;;4.07;;
16954;SDS011;8594;52.052;8.354;2023-04-01T14:39:07;5.40;;;4.53;;
16954;SDS011;8594;52.052;8.354;2023-04-01T14:41:56;6.80;;;5.23;;
16954;SDS011;8594;52.052;8.354;2023-04-01T14:44:57;8.27;;;5.83;;
16954;SDS011;8594;52.052;8.354;2023-04-01T14:47:48;9.20;;;6.40;;
16954;SDS011;8594;52.052;8.354;2023-04-01T14:50:22;10.00;;;7.27;;
16954;SDS011;8594;52.052;8.354;2023-04-01T14:52:57;10.87;;;7.10;;
16954;SDS011;8594;52.052;8.354;2023-04-01T14:55:44;11.63;;;7.50;;
16954;SDS011;8594;52.052;8.354;2023-04-01T14:58:17;12.30;;;7.90;;
16954;SDS011;8594;52.052;8.354;2023-04-01T15:00:58;9.40;;;7.47;;
16954;SDS011;8594;52.052;8.354;2023-04-01T15:03:48;11.27;;;6.60;;
16954;SDS011;8594;52.052;8.354;2023-04-01T15:06:40;8.57;;;5.77;;
16954;SDS011;8594;52.052;8.354;2023-04-01T15:09:27;7.70;;;5.70;;
16954;SDS011;8594;52.052;8.354;2023-04-01T15:12:12;7.67;;;5.87;;
16954;SDS011;8594;52.052;8.354;2023-04-01T15:14:53;8.20;;;6.30;;
16954;SDS011;8594;52.052;8.354;2023-04-01T15:17:43;9.87;;;6.77;;
16954;SDS011;8594;52.052;8.354;2023-04-01T15:20:29;7.70;;;6.03;;
16954;SDS011;8594;52.052;8.354;2023-04-01T15:23:18;7.27;;;5.40;;
16954;SDS011;8594;52.052;8.354;2023-04-01T15:26:13;7.00;;;4.67;;
16954;SDS011;8594;52.052;8.354;2023-04-01T15:29:08;2.83;;;2.57;;
16954;SDS011;8594;52.052;8.354;2023-04-01T15:32:05;3.23;;;2.60;;
16954;SDS011;8594;52.052;8.354;2023-04-01T15:34:44;3.23;;;2.80;;
16954;SDS011;8594;52.052;8.354;2023-04-01T15:37:28;3.20;;;2.37;;
16954;SDS011;8594;52.052;8.354;2023-04-01T15:40:11;3.40;;;2.70;;
16954;SDS011;8594;52.052;8.354;2023-04-01T15:42:52;3.00;;;2.53;;
16954;SDS011;8594;52.052;8.354;2023-04-01T15:45:39;3.53;;;2.20;;
16954;SDS011;8594;52.052;8.354;2023-04-01T15:48:27;4.33;;;2.30;;
16954;SDS011;8594;52.052;8.354;2023-04-01T15:51:21;2.60;;;2.03;;
16954;SDS011;8594;52.052;8.354;2023-04-01T15:54:16;4.17;;;1.83;;
16954;SDS011;8594;52.052;8.354;2023-04-01T15:57:08;5.03;;;1.83;;
16954;SDS011;8594;52.052;8.354;2023-04-01T15:59:53;2.40;;;2.20;;
16954;SDS011;8594;52.052;8.354;2023-04-01T16:02:38;3.83;;;2.57;;
16954;SDS011;8594;52.052;8.354;2023-04-01T16:05:22;3.63;;;2.77;;
16954;SDS011;8594;52.052;8.354;2023-04-01T16:08:09;2.80;;;2.30;;
16954;SDS011;8594;52.052;8.354;2023-04-01T16:11:03;3.90;;;2.40;;
16954;SDS011;8594;52.052;8.354;2023-04-01T16:13:52;2.97;;;2.67;;
16954;SDS011;8594;52.052;8.354;2023-04-01T16:16:33;4.47;;;2.90;;
16954;SDS011;8594;52.052;8.354;2023-04-01T16:19:32;3.30;;;3.00;;
16954;SDS011;8594;52.052;8.354;2023-04-01T16:22:14;2.93;;;2.50;;
16954;SDS011;8594;52.052;8.354;2023-04-01T16:24:51;3.57;;;2.90;;
16954;SDS011;8594;52.052;8.354;2023-04-01T16:27:27;3.50;;;2.90;;
16954;SDS011;8594;52.052;8.354;2023-04-01T16:30:16;3.10;;;2.63;;
16954;SDS011;8594;52.052;8.354;2023-04-01T16:33:00;3.47;;;2.80;;
16954;SDS011;8594;52.052;8.354;2023-04-01T16:35:39;2.47;;;2.17;;
16954;SDS011;8594;52.052;8.354;2023-04-01T16:38:15;2.83;;;2.20;;
16954;SDS011;8594;52.052;8.354;2023-04-01T16:40:53;2.93;;;1.80;;
16954;SDS011;8594;52.052;8.354;2023-04-01T16:43:40;2.57;;;1.93;;
16954;SDS011;8594;52.052;8.354;2023-04-01T16:49:13;2.70;;;1.60;;
16954;SDS011;8594;52.052;8.354;2023-04-01T16:51:53;1.80;;;1.60;;
16954;SDS011;8594;52.052;8.354;2023-04-01T16:54:31;2.40;;;1.80;;
16954;SDS011;8594;52.052;8.354;2023-04-01T16:57:19;2.50;;;2.30;;
16954;SDS011;8594;52.052;8.354;2023-04-01T16:59:57;4.77;;;2.87;;
16954;SDS011;8594;52.052;8.354;2023-04-01T17:02:31;4.13;;;3.13;;
16954;SDS011;8594;52.052;8.354;2023-04-01T17:05:04;5.10;;;2.90;;
16954;SDS011;8594;52.052;8.354;2023-04-01T17:07:47;3.47;;;3.17;;
16954;SDS011;8594;52.052;8.354;2023-04-01T17:10:29;3.80;;;3.40;;
16954;SDS011;8594;52.052;8.354;2023-04-01T17:13:23;3.23;;;2.93;;
16954;SDS011;8594;52.052;8.354;2023-04-01T17:16:06;3.67;;;3.13;;
16954;SDS011;8594;52.052;8.354;2023-04-01T17:18:53;3.37;;;2.77;;
16954;SDS011;8594;52.052;8.354;2023-04-01T17:21:43;4.17;;;2.90;;
16954;SDS011;8594;52.052;8.354;2023-04-01T17:24:28;3.60;;;3.03;;
16954;SDS011;8594;52.052;8.354;2023-04-01T17:27:18;4.10;;;3.10;;
16954;SDS011;8594;52.052;8.354;2023-04-01T17:30:03;4.17;;;3.50;;
16954;SDS011;8594;52.052;8.354;2023-04-01T17:33:02;4.20;;;3.17;;
16954;SDS011;8594;52.052;8.354;2023-04-01T17:35:54;5.20;;;3.60;;